createdAt,value
2019-03-15T00:02:02.742Z,82.10
2019-03-15T00:07:07.503Z,82.30
2019-03-15T00:12:12.246Z,83.00
2019-03-15T00:17:16.986Z,83.00
2019-03-15T00:22:22.649Z,83.30
2019-03-15T00:27:27.372Z,83.90
2019-03-15T00:32:32.006Z,84.60
2019-03-15T00:37:36.567Z,84.10
2019-03-15T00:42:41.311Z,83.90
2019-03-15T00:47:47.280Z,84.00
2019-03-15T00:52:51.694Z,84.20
2019-03-15T00:57:56.459Z,84.50
2019-03-15T01:03:01.198Z,84.90
2019-03-15T01:08:05.943Z,84.90
2019-03-15T01:13:10.682Z,85.10
2019-03-15T01:18:15.121Z,84.70
2019-03-15T01:23:19.552Z,84.70
2019-03-15T01:28:23.892Z,84.90
2019-03-15T01:33:28.421Z,85.50
2019-03-15T01:38:32.837Z,85.30
2019-03-15T01:43:38.468Z,85.20
2019-03-15T01:48:43.261Z,85.70
2019-03-15T01:53:48.409Z,86.00
2019-03-15T01:58:53.027Z,86.50
2019-03-15T02:03:57.771Z,86.50
2019-03-15T02:09:02.843Z,86.30
2019-03-15T02:14:07.584Z,86.60
2019-03-15T02:19:12.120Z,86.90
2019-03-15T02:24:16.531Z,86.70
2019-03-15T02:29:21.194Z,86.50
2019-03-15T02:34:26.848Z,86.80
2019-03-15T02:39:31.913Z,86.00
2019-03-15T02:44:36.343Z,85.90
2019-03-15T02:49:40.777Z,86.80
2019-03-15T02:54:45.192Z,86.00
2019-03-15T02:59:49.647Z,86.50
2019-03-15T03:10:18.696Z,86.50
2019-03-15T03:15:24.508Z,86.80
2019-03-15T03:20:29.413Z,87.40
2019-03-15T03:25:34.053Z,87.00
2019-03-15T03:30:38.587Z,87.00
2019-03-15T03:35:43.031Z,87.50
2019-03-15T03:40:47.455Z,87.70
2019-03-15T03:45:51.889Z,88.20
2019-03-15T03:50:59.715Z,87.60
2019-03-15T03:56:02.485Z,87.80
2019-03-15T04:01:07.669Z,88.20
2019-03-15T04:06:12.676Z,88.30
2019-03-15T04:11:17.134Z,89.20
2019-03-15T04:16:21.649Z,87.50
2019-03-15T04:21:26.701Z,87.20
2019-03-15T04:26:31.362Z,87.00
2019-03-15T04:31:35.795Z,87.30
2019-03-15T04:36:40.206Z,87.40
2019-03-15T04:41:45.007Z,87.30
2019-03-15T04:46:49.713Z,87.70
2019-03-15T04:51:54.148Z,87.80
2019-03-15T04:56:58.895Z,87.80
2019-03-15T05:02:03.326Z,87.80
2019-03-15T05:07:08.067Z,87.70
2019-03-15T05:12:12.501Z,88.00
2019-03-15T05:17:17.013Z,88.10
2019-03-15T05:22:21.678Z,88.20
2019-03-15T05:27:26.425Z,88.70
2019-03-15T05:32:31.123Z,89.00
2019-03-15T05:37:35.881Z,89.10
2019-03-15T05:42:40.316Z,88.60
2019-03-15T05:47:44.876Z,88.40
2019-03-15T05:52:49.513Z,88.10
2019-03-15T05:57:53.937Z,87.60
2019-03-15T06:02:58.366Z,88.10
2019-03-15T06:08:02.921Z,88.50
2019-03-15T06:13:07.564Z,88.50
2019-03-15T06:18:12.081Z,88.10
2019-03-15T06:23:17.056Z,88.30
2019-03-15T06:28:22.708Z,87.90
2019-03-15T06:33:28.725Z,87.90
2019-03-15T06:38:33.645Z,88.20
2019-03-15T06:43:38.471Z,87.60
2019-03-15T06:48:45.062Z,87.70
2019-03-15T06:53:49.564Z,87.20
2019-03-15T06:58:54.235Z,86.60
2019-03-15T07:03:58.970Z,87.10
2019-03-15T07:09:04.272Z,86.60
2019-03-15T07:14:09.068Z,86.70
2019-03-15T07:19:25.750Z,87.40
2019-03-15T07:24:25.348Z,87.90
2019-03-15T07:29:26.960Z,88.00
2019-03-15T07:34:31.728Z,88.60
2019-03-15T07:39:36.440Z,87.10
2019-03-15T07:44:41.208Z,86.20
2019-03-15T07:49:45.732Z,85.00
2019-03-15T07:54:50.691Z,85.00
2019-03-15T07:59:55.430Z,86.10
2019-03-15T08:05:00.261Z,85.60
2019-03-15T08:10:07.470Z,84.50
2019-03-15T08:15:13.342Z,86.00
2019-03-15T08:20:17.776Z,86.60
2019-03-15T08:25:22.526Z,87.30
2019-03-15T08:30:26.958Z,87.20
2019-03-15T08:35:31.700Z,87.50
2019-03-15T08:40:36.205Z,88.20
2019-03-15T08:45:41.159Z,88.20
2019-03-15T08:50:46.842Z,87.90
2019-03-15T08:55:53.427Z,88.30
2019-03-15T09:00:57.962Z,88.30
2019-03-15T09:06:02.603Z,87.70
2019-03-15T09:11:07.138Z,84.70
2019-03-15T09:16:11.885Z,85.00
2019-03-15T09:21:16.520Z,84.50
2019-03-15T09:26:21.264Z,83.50
2019-03-15T09:31:25.987Z,84.00
2019-03-15T09:36:32.779Z,82.50
2019-03-15T09:41:39.971Z,82.20
2019-03-15T09:46:42.990Z,80.40
2019-03-15T09:51:47.401Z,81.00
2019-03-15T09:56:52.762Z,80.20
2019-03-15T10:01:57.527Z,79.20
2019-03-15T10:07:02.270Z,79.40
2019-03-15T10:12:06.703Z,81.00
2019-03-15T10:17:11.226Z,79.70
2019-03-15T10:22:15.883Z,81.80
2019-03-15T10:27:20.340Z,82.00
2019-03-15T10:32:24.749Z,82.50
2019-03-15T10:37:29.185Z,81.70
2019-03-15T10:42:33.595Z,80.70
2019-03-15T10:47:38.360Z,79.70
2019-03-15T10:52:43.101Z,81.50
2019-03-15T10:57:48.457Z,79.60
2019-03-15T11:02:53.174Z,77.90
2019-03-15T11:07:57.609Z,74.60
2019-03-15T11:13:02.069Z,77.30
2019-03-15T11:18:06.814Z,77.40
2019-03-15T11:23:11.253Z,78.10
2019-03-15T11:28:15.760Z,75.80
2019-03-15T11:33:20.730Z,76.00
2019-03-15T11:38:25.239Z,77.70
2019-03-15T11:43:29.905Z,77.50
2019-03-15T11:48:34.730Z,78.70
2019-03-15T11:53:39.389Z,78.30
2019-03-15T11:58:45.551Z,80.80
2019-03-15T12:03:53.338Z,79.60
2019-03-15T12:08:56.075Z,78.90
2019-03-15T12:14:00.818Z,78.10
2019-03-15T12:19:05.556Z,77.70
2019-03-15T12:24:10.299Z,79.00
2019-03-15T12:29:14.733Z,79.20
2019-03-15T12:34:19.476Z,80.40
2019-03-15T12:39:23.882Z,79.50
2019-03-15T12:44:28.649Z,78.10
2019-03-15T12:49:33.503Z,77.20
2019-03-15T12:54:38.138Z,78.10
2019-03-15T12:59:44.183Z,81.20
2019-03-15T13:04:51.829Z,82.90
2019-03-15T13:09:54.817Z,84.30
2019-03-15T13:14:59.265Z,82.70
2019-03-15T13:20:04.608Z,82.90
2019-03-15T13:25:10.772Z,82.90
2019-03-15T13:30:16.380Z,82.30
2019-03-15T13:35:20.870Z,81.20
2019-03-15T13:40:25.421Z,80.90
2019-03-15T13:45:29.830Z,82.00
2019-03-15T13:50:34.354Z,80.20
2019-03-15T13:55:38.904Z,79.60
2019-03-15T14:00:43.769Z,81.00
2019-03-15T14:05:48.224Z,81.60
2019-03-15T14:10:52.948Z,82.40
2019-03-15T14:15:57.704Z,81.20
2019-03-15T14:21:02.198Z,81.00
2019-03-15T14:26:06.934Z,80.50
2019-03-15T14:31:11.610Z,79.20
2019-03-15T14:36:16.052Z,77.50
2019-03-15T14:41:21.113Z,76.80
2019-03-15T14:46:25.443Z,76.60
2019-03-15T14:51:30.477Z,76.00
2019-03-15T14:56:35.015Z,75.70
2019-03-15T15:01:39.626Z,75.70
2019-03-15T15:06:44.492Z,77.30
2019-03-15T15:11:48.927Z,74.40
2019-03-15T15:16:53.671Z,76.30
2019-03-15T15:21:58.018Z,76.60
2019-03-15T15:27:02.536Z,74.90
2019-03-15T15:32:07.281Z,74.50
2019-03-15T15:37:11.799Z,76.30
2019-03-15T15:42:16.455Z,76.50
2019-03-15T15:47:20.968Z,76.70
2019-03-15T15:52:25.726Z,77.60
2019-03-15T15:57:30.142Z,77.40
2019-03-15T16:02:36.113Z,76.50
2019-03-15T16:07:40.786Z,76.30
2019-03-15T16:12:45.498Z,76.00
2019-03-15T16:17:49.970Z,76.40
2019-03-15T16:22:54.472Z,76.60
2019-03-15T16:27:59.213Z,77.00
2019-03-15T16:33:03.907Z,77.60
2019-03-15T16:38:08.495Z,77.10
2019-03-15T16:43:13.048Z,77.70
2019-03-15T16:48:17.572Z,78.70
2019-03-15T16:53:23.462Z,79.00
2019-03-15T16:58:28.195Z,79.30
2019-03-15T17:03:34.194Z,78.80
2019-03-15T17:08:38.682Z,78.90
2019-03-15T17:13:43.343Z,78.00
2019-03-15T17:18:47.787Z,77.90
2019-03-15T17:23:52.185Z,78.00
2019-03-15T17:28:58.915Z,77.40
2019-03-15T17:34:02.901Z,76.50
2019-03-15T17:39:07.972Z,77.10
2019-03-15T17:44:12.488Z,78.50
2019-03-15T17:49:16.879Z,79.60
2019-03-15T17:54:21.520Z,79.90
2019-03-15T17:59:26.017Z,80.30
2019-03-15T18:04:31.152Z,80.60
2019-03-15T18:09:35.810Z,79.00
2019-03-15T18:14:40.329Z,78.20
2019-03-15T18:19:44.965Z,79.10
2019-03-15T18:24:49.425Z,79.50
2019-03-15T18:29:54.163Z,79.90
2019-03-15T18:34:58.901Z,80.30
2019-03-15T18:40:09.798Z,81.00
2019-03-15T18:45:15.766Z,81.80
2019-03-15T18:50:25.114Z,81.60
2019-03-15T18:55:29.645Z,82.50
2019-03-15T19:00:34.285Z,83.40
2019-03-15T19:05:39.335Z,83.00
2019-03-15T19:10:44.901Z,83.40
2019-03-15T19:15:49.739Z,83.40
2019-03-15T19:20:54.428Z,84.30
2019-03-15T19:25:59.222Z,84.90
2019-03-15T19:31:03.645Z,85.10
2019-03-15T19:36:08.091Z,86.00
2019-03-15T19:41:12.526Z,85.90
2019-03-15T19:46:17.272Z,86.70
2019-03-15T19:51:22.010Z,86.80
2019-03-15T19:56:26.529Z,86.40
2019-03-15T20:01:31.255Z,86.30
2019-03-15T20:06:36.235Z,86.70
2019-03-15T20:11:40.977Z,86.40
2019-03-15T20:16:45.720Z,87.10
2019-03-15T20:21:50.154Z,87.20
2019-03-15T20:26:54.896Z,87.40
2019-03-15T20:31:59.413Z,88.00
2019-03-15T20:37:05.070Z,89.10
2019-03-15T20:42:09.812Z,87.20
2019-03-15T20:47:14.482Z,85.90
2019-03-15T20:52:19.220Z,82.10
2019-03-15T20:57:24.189Z,81.20
2019-03-15T21:02:28.988Z,81.90
2019-03-15T21:07:33.524Z,83.00
2019-03-15T21:12:38.187Z,80.90
2019-03-15T21:17:42.535Z,78.10
2019-03-15T21:22:47.054Z,75.20
2019-03-15T21:27:54.814Z,74.70
2019-03-15T21:32:57.884Z,74.90
2019-03-15T21:38:02.586Z,75.00
2019-03-15T21:43:07.250Z,75.60
2019-03-15T21:48:11.686Z,76.90
2019-03-15T21:53:16.325Z,77.30
2019-03-15T21:58:21.142Z,78.40
2019-03-15T22:03:25.602Z,79.20
2019-03-15T22:08:30.010Z,80.30
2019-03-15T22:13:34.782Z,80.20
2019-03-15T22:18:39.215Z,80.10
2019-03-15T22:23:43.964Z,80.80
2019-03-15T22:28:48.697Z,80.60
2019-03-15T22:33:53.111Z,81.80
2019-03-15T22:38:57.874Z,82.90
2019-03-15T22:44:02.616Z,82.00
2019-03-15T22:49:07.022Z,80.30
2019-03-15T22:54:11.806Z,78.30
2019-03-15T22:59:16.227Z,77.10
2019-03-15T23:04:20.973Z,77.60
2019-03-15T23:09:25.712Z,78.90
2019-03-15T23:14:30.454Z,79.00
2019-03-15T23:19:34.886Z,79.20
2019-03-15T23:24:39.321Z,77.90
2019-03-15T23:29:44.065Z,77.20
2019-03-15T23:34:50.034Z,76.80
2019-03-15T23:39:54.468Z,74.90
2019-03-15T23:44:59.211Z,74.70
2019-03-15T23:50:05.666Z,75.00
2019-03-15T23:55:10.230Z,75.00
